Aktualne dane pomiarowe

Uwaga, wersja testowa! Automatyczne pobieranie danych za pomocą narzędzi lub skryptów to umożliwiających jest zabronione.

Dane meteo z obszaru Polski uzyskane na podstawie depesz SYNOP pobieranych co godzinę z NWS. Najedź myszką na symbol przedstawiony w tabeli, aby uzyskać informacje co do jego znaczenia. Prosimy pamiętać, że to testowa wersja strony, która jeszcze nie jest ukończona. Stworzono również jest krótki FAQ dotyczący korzystania z tej podstrony Anomalie temperatury w chwili obecnej odniesione są do okresu referencyjnego 1951-2016. Okres ten będzie później zmieniony na 1981-2010. Kliknij ikonę aby pobrać plik CSV. Kliknij ikonę aby wygenerować mapę synoptyczną dla danego terminu.

Wybierz Datę:    

        

Dęblin-Irena (12490)

Dane terminowe dla wybranej stacji. Kliknij datę, aby otrzymać dane z tego terminu dla wszystkich stacji.

TemperaturaZachmurzenieWiatrCiśnienieOpadyPogoda
 Data t td wb tx tn tg rh  Nt Nl Cl Cm Ch ws wd g1 g2 wx mslp ppp ch 24h 12h t ww ww w1 w2  
2019-05-06 23:00:00 8.4 -1.7 3.6--- 4910.0wx-wx3wx---1012.4 998.0 0.2---------
2019-05-06 22:00:00 9.2 -2.1 4.0--- 4510.0wx-wx3wx---1012.4 998.0 0.2---------
2019-05-06 21:00:00 9.0 -2.3 3.8--- 4510.0wxwxwxwx3wx---1012.1 997.7 0.7---------
2019-05-06 20:00:00 10.2 -2.8 4.4--- 4010.0wxwxwxwx3wx---1012.1 997.8 1.2---------
2019-05-06 19:00:00 10.6 -4.2 4.2--- 3510.0wxwxwxwx5wx---1012.1 997.8 1.3---------
2019-05-06 18:00:00 10.4 -2.9 4.4--- 3910.0wxwxwxwx3wx---1011.3 997.0 0.5---------
2019-05-06 17:00:00 11.6 -4.1 4.8--- 3310.0wx-wx4wx---1010.8 996.6 -0.1---------
2019-05-06 16:00:00 12.0 -4.2 5.0--- 3210.0wx-wx5wx---1010.7 996.5 -0.1---------
2019-05-06 15:00:00 12.1 -4.1 5.1--- 3210.0wx-wx7wx---1010.7 996.5 -0.3---------
2019-05-06 14:00:00 12.2 -3.6 5.2--- 3310.0wx-wx5wx---1010.9 996.7 -0.4---------
2019-05-06 13:00:00 11.7 -3.6 5.0--- 3410.0wx-wx6wx---1010.8 996.6 -1.0---------
2019-05-06 12:00:00 11.6 -2.6 5.2--- 3710.0wx-wx6wx---1011.0 996.8 -1.0---------
2019-05-06 11:00:00 11.6 -1.5 5.5--- 4010.0wx-wxwx7wx---1011.3 997.1 -0.7---------
2019-05-06 10:00:00 10.2 -1.5 4.7--- 4410.0wx-wxwx6wx---1011.9 997.6 -0.7---------
2019-05-06 09:00:00 9.7 -0.2 4.9--- 5010.0wx-wx6wx---1012.1 997.8 -0.5---------
2019-05-06 08:00:00 8.4 -2.0 3.5--- 4810.0wx-wx6wx---1012.3 997.9 0.0---------
2019-05-06 07:00:00 6.9 -1.0 3.0--- 5710.0wx-wx5wx---1012.6 998.1 -0.2---------
2019-05-06 06:00:00 5.9 -2.2 2.0--- 5610.0wx-wx4wx---1012.8 998.3 0.1---------
2019-05-06 05:00:00 4.6 -3.7 0.8--- 5510.0wx-wx4wx---1012.5 997.9 -0.4---------
2019-05-06 04:00:00 4.3 -3.7 0.6--- 5610.0wxwxwxwx4wx---1012.8 998.3 -0.1---------
2019-05-06 03:00:00 5.3 -4.1 1.1--- 5110.0wxwxwx3wx---1012.8 998.2 -0.2---------
2019-05-06 02:00:00 5.7 -3.6 1.5--- 5140.0wxwxwx4wx---1012.9 998.3 -0.4---------
2019-05-06 01:00:00 6.0 -2.8 1.9--- 5310.0wxwxwx4wx---1012.8 998.3 -0.2---------
2019-05-06 00:00:00 6.6 -1.8 2.6--- 5510.0wxwxwx4wx---1013.2 998.7 0.1---------
2019-05-05 23:00:00 6.6 -1.8 2.6--- 5510.0wxwxwx4wx---1013.2 998.7 0.1---------
2019-05-05 22:00:00 6.7 -0.3 3.1--- 6110.0wxwxwx4wx---1013.1 998.6 0.2---------
2019-05-05 21:00:00 6.2 0.7 3.2--- 6810.0wxwxwx2wx---1013.0 998.5 0.5---------
2019-05-05 20:00:00 7.2 0.6 3.7--- 6310.0wxwxwx2wx---1013.1 998.6 0.8---------
2019-05-05 19:00:00 8.0 0.3 4.1--- 5810.0wxwxwx3wx---1012.8 998.4 0.6---------
2019-05-05 18:00:00 8.1 0.8 4.3--- 6010.0wxwxwx3wx---1012.4 998.0 0.2---------
2019-05-05 17:00:00 8.7 0.4 4.5--- 5610.0wxwxwx5wx---1012.2 997.8 0.2---------
2019-05-05 16:00:00 8.8 0.5 4.6--- 5610.0wxwxwx6wx---1012.2 997.8 0.3---------
2019-05-05 15:00:00 8.8 1.0 4.8--- 5810.0wxwxwx6wx---1012.2 997.8 0.6---------
2019-05-05 14:00:00 9.0 1.7 5.1--- 6010.0wxwxwx6wx---1012.0 997.6 0.7---------
2019-05-05 13:00:00 9.0 1.4 5.0--- 5910.0wxwxwx7wx---1011.9 997.5 1.2---------
2019-05-05 12:00:00 9.5 1.9 5.5--- 5910.0wxwxwx7wx---1011.5 997.2 0.9---------
2019-05-05 11:00:00 9.3 2.4 5.6--- 6210.0wxwxwx7wx---1011.3 997.0 1.3---------
2019-05-05 10:00:00 8.8 2.8 5.5--- 6610.0wxwxwx5wx---1010.8 996.4 1.1---------
2019-05-05 09:00:00 7.2 3.1 4.8--- 7510.0wxwxwx5wx---1010.7 996.3 1.5---------
2019-05-05 08:00:00 7.3 2.8 4.7--- 7310.0wxwxwx7wx---1010.1 995.7 1.7---------
2019-05-05 07:00:00 7.7 3.7 5.3--- 7610.0wxwxwx6wx---1009.6 995.2 2.1---------
2019-05-05 06:00:00 6.5 3.5 4.7--- 8110.0wxwxwx4wx---1009.3 994.8 2.2---------
2019-05-05 05:00:00 5.9 3.7 4.5--- 8610.0wxwxwx4wx---1008.5 994.0 2.0---------
2019-05-05 04:00:00 5.2 4.0 4.4--- 9210.0wxwxwx4wx---1007.7 993.2 1.5---------
2019-05-05 03:00:00 5.4 4.1 4.5--- 9110.0wxwxwx4wx---1007.2 992.7 1.2---------
2019-05-05 02:00:00 5.2 4.4 4.6--- 9510.0wxwxwx1----1006.5 992.0 0.6---------
2019-05-05 00:00:00 5.9 4.9 5.2--- 9310.0wx-wx1----1005.9 991.5 0.4---------
1.7 ms

 

Print Friendly, PDF & Email